Time;durP1;ratioP1;P1;durP2;ratioP2;P2;SDS_P1;SDS_P2;PMS_P1;PMS_P2;Temp;Humidity;BMP_temperature;BMP_pressure;BME280_temperature;BME280_humidity;BME280_pressure;Samples;Min_cycle;Max_cycle;Signal;HPM_P1;HPM_P2
2022/04/02 00:00:58;;;;;;;25.30;10.95;;;;;;;1.29;94.55;94709.44;5130971;27;20043;-76
2022/04/02 00:03:26;;;;;;;23.65;9.80;;;;;;;1.29;94.60;94714.78;5130622;27;20043;-76
2022/04/02 00:05:53;;;;;;;24.80;10.32;;;;;;;1.27;94.50;94708.94;5130475;27;20428;-77
2022/04/02 00:08:20;;;;;;;23.55;10.38;;;;;;;1.30;94.93;94710.22;5130996;27;20277;-77
2022/04/02 00:10:46;;;;;;;29.42;12.52;;;;;;;1.38;95.11;94720.25;5130241;27;20070;-76
2022/04/02 00:13:13;;;;;;;26.58;12.27;;;;;;;1.44;95.29;94718.25;5129807;27;20051;-76
2022/04/02 00:15:39;;;;;;;31.15;13.68;;;;;;;1.48;95.14;94719.25;5089194;28;20059;-76
2022/04/02 00:18:06;;;;;;;35.63;15.57;;;;;;;1.54;94.88;94718.06;5089910;28;20047;-76
2022/04/02 00:20:33;;;;;;;30.23;14.32;;;;;;;1.62;95.00;94703.94;5089496;28;20058;-76
2022/04/02 00:25:44;;;;;;;41.15;19.13;;;;;;;1.57;93.79;94706.72;5069428;28;20056;-76
2022/04/02 00:28:10;;;;;;;47.50;21.50;;;;;;;1.64;93.99;94717.84;5068569;28;20052;-77
2022/04/02 00:30:37;;;;;;;40.78;20.10;;;;;;;1.63;93.27;94712.78;5069881;28;20056;-76
2022/04/02 00:33:03;;;;;;;41.15;20.40;;;;;;;1.61;93.13;94713.06;5068683;28;20055;-76
2022/04/02 00:35:30;;;;;;;45.08;21.55;;;;;;;1.58;92.81;94711.00;5069492;28;20053;-76
2022/04/02 00:37:57;;;;;;;42.45;20.42;;;;;;;1.52;92.60;94714.88;5067949;28;20502;-76
2022/04/02 00:40:24;;;;;;;51.90;22.83;;;;;;;1.47;92.47;94707.75;5067427;28;20052;-76
2022/04/02 00:42:50;;;;;;;44.13;22.13;;;;;;;1.37;92.35;94707.94;5068154;28;20056;-76
2022/04/02 00:45:17;;;;;;;45.58;22.38;;;;;;;1.22;92.53;94706.38;5068819;28;20056;-76
2022/04/02 00:47:43;;;;;;;46.22;21.60;;;;;;;1.24;92.78;94706.84;5069412;28;20056;-76
2022/04/02 00:50:10;;;;;;;50.53;23.40;;;;;;;1.24;92.98;94709.53;5068127;28;20044;-76
2022/04/02 00:52:37;;;;;;;42.38;21.83;;;;;;;1.19;92.56;94706.94;5069327;28;20513;-76
2022/04/02 00:55:07;;;;;;;43.75;21.25;;;;;;;1.17;92.54;94706.47;5068306;28;20053;-76
2022/04/02 00:57:34;;;;;;;46.22;21.45;;;;;;;1.05;92.68;94711.53;5069694;28;20052;-76
2022/04/02 01:00:01;;;;;;;41.75;21.30;;;;;;;1.04;92.96;94709.94;5068341;28;20535;-76
2022/04/02 01:02:27;;;;;;;48.10;23.25;;;;;;;1.01;93.16;94713.22;5069329;28;20053;-76
2022/04/02 01:04:55;;;;;;;42.90;21.63;;;;;;;0.97;93.43;94707.66;5068493;28;20059;-76
2022/04/02 01:07:22;;;;;;;47.72;22.45;;;;;;;1.01;93.79;94711.31;5068199;28;20554;-76
2022/04/02 01:09:48;;;;;;;47.85;22.92;;;;;;;1.04;94.00;94713.44;5067179;28;20510;-76
2022/04/02 01:12:16;;;;;;;50.22;23.38;;;;;;;1.04;94.02;94724.16;5068033;28;20056;-76
2022/04/02 01:14:43;;;;;;;42.50;21.75;;;;;;;0.99;93.77;94718.06;5081691;28;20059;-76
2022/04/02 01:17:09;;;;;;;46.42;22.50;;;;;;;0.97;94.20;94726.41;5088144;28;20044;-76
2022/04/02 01:19:36;;;;;;;45.42;21.95;;;;;;;0.96;94.43;94732.06;5089261;28;20044;-75
2022/04/02 01:22:05;;;;;;;42.67;21.88;;;;;;;0.94;94.40;94726.19;5087935;28;20134;-76
2022/04/02 01:24:31;;;;;;;45.72;22.00;;;;;;;0.96;94.72;94734.75;5088937;28;20055;-76
2022/04/02 01:26:58;;;;;;;42.22;22.17;;;;;;;0.94;94.41;94728.88;5087909;28;20506;-77
2022/04/02 01:29:24;;;;;;;42.38;20.60;;;;;;;0.91;94.56;94732.16;5088367;28;20044;-76
2022/04/02 01:31:51;;;;;;;43.17;21.60;;;;;;;0.90;94.38;94735.94;5088270;28;20052;-76
2022/04/02 01:34:20;;;;;;;46.63;21.63;;;;;;;0.92;94.45;94725.72;5088189;28;20055;-77
2022/04/02 01:36:46;;;;;;;46.05;21.60;;;;;;;0.88;93.96;94732.75;5088673;28;20059;-76
2022/04/02 01:39:14;;;;;;;47.35;21.30;;;;;;;0.84;93.91;94740.59;5087511;28;20051;-76
2022/04/02 01:41:41;;;;;;;41.63;20.67;;;;;;;0.78;93.86;94744.44;5088373;28;20079;-76
2022/04/02 01:44:07;;;;;;;41.95;21.30;;;;;;;0.76;94.13;94744.75;5094655;28;20055;-76
2022/04/02 01:46:34;;;;;;;45.08;22.27;;;;;;;0.78;94.43;94737.22;5109215;28;20059;-75
2022/04/02 01:49:00;;;;;;;45.30;21.80;;;;;;;0.78;94.40;94745.25;5107932;28;20502;-76
2022/04/02 01:51:27;;;;;;;48.35;22.08;;;;;;;0.83;94.68;94741.66;5108038;28;20799;-76
2022/04/02 01:53:53;;;;;;;41.85;21.85;;;;;;;0.90;94.55;94746.66;5108088;28;20043;-75
2022/04/02 01:56:21;;;;;;;48.55;21.98;;;;;;;0.85;94.08;94742.19;5107551;28;20047;-75
2022/04/02 01:58:48;;;;;;;43.17;20.60;;;;;;;0.86;94.10;94743.78;5108207;28;20052;-76
2022/04/02 02:01:14;;;;;;;43.75;21.50;;;;;;;0.86;93.98;94745.66;5107766;28;20141;-76
2022/04/02 02:03:41;;;;;;;44.13;21.13;;;;;;;0.84;94.03;94747.84;5108622;28;20044;-76
2022/04/02 02:06:07;;;;;;;45.22;21.27;;;;;;;0.81;93.88;94751.09;5106700;28;20052;-75
2022/04/02 02:08:34;;;;;;;43.80;20.88;;;;;;;0.85;94.21;94755.59;5108594;28;20044;-76
2022/04/02 02:11:00;;;;;;;39.88;19.83;;;;;;;0.89;94.09;94758.44;5107358;28;20058;-76
2022/04/02 02:13:28;;;;;;;45.50;20.73;;;;;;;0.87;93.93;94756.06;5116760;27;20048;-76
2022/04/02 02:15:54;;;;;;;38.13;19.33;;;;;;;0.89;93.86;94761.13;5107307;27;20044;-76
2022/04/02 02:18:21;;;;;;;39.92;18.40;;;;;;;0.84;93.70;94758.56;5107313;27;20043;-76
2022/04/02 02:20:47;;;;;;;36.03;17.90;;;;;;;0.83;93.17;94757.75;5106984;27;20090;-76
2022/04/02 02:23:14;;;;;;;41.80;18.92;;;;;;;0.79;92.95;94764.81;5106965;27;20054;-75
2022/04/02 02:25:40;;;;;;;36.65;16.85;;;;;;;0.76;93.23;94774.22;5107854;27;20055;-75
2022/04/02 02:28:07;;;;;;;39.97;17.77;;;;;;;0.74;93.24;94771.03;5106526;27;20541;-76
2022/04/02 02:30:36;;;;;;;35.75;17.45;;;;;;;0.74;93.36;94773.72;5107753;27;20079;-76
2022/04/02 02:35:52;;;;;;;39.75;17.15;;;;;;;0.64;92.97;94765.88;5108038;27;20053;-76
2022/04/02 02:38:21;;;;;;;38.47;17.67;;;;;;;0.50;93.26;94773.84;5106804;27;20056;-75
2022/04/02 02:40:49;;;;;;;44.70;17.98;;;;;;;0.48;93.50;94775.25;5107013;27;20619;-76
2022/04/02 02:43:16;;;;;;;39.13;18.60;;;;;;;0.51;93.85;94777.31;5106779;27;20607;-76
2022/04/02 02:45:44;;;;;;;43.08;18.98;;;;;;;0.51;93.68;94771.97;5127413;27;20073;-76
2022/04/02 02:48:11;;;;;;;36.42;18.45;;;;;;;0.50;93.87;94778.41;5127839;27;20051;-77
2022/04/02 02:50:38;;;;;;;37.33;18.65;;;;;;;0.50;94.27;94781.09;5126931;27;20055;-76
2022/04/02 02:53:05;;;;;;;37.17;17.20;;;;;;;0.48;93.81;94775.25;5127489;27;20055;-75
2022/04/02 02:55:31;;;;;;;34.85;16.92;;;;;;;0.43;93.67;94780.69;5127258;27;20062;-76
2022/04/02 02:57:58;;;;;;;38.38;17.00;;;;;;;0.45;93.89;94783.84;5128043;27;20051;-75
2022/04/02 03:00:25;;;;;;;39.60;18.13;;;;;;;0.43;93.79;94784.16;5126580;27;20043;-76
2022/04/02 03:02:53;;;;;;;42.20;17.77;;;;;;;0.44;93.75;94782.25;5127295;27;20070;-75
2022/04/02 03:05:20;;;;;;;38.88;18.20;;;;;;;0.44;93.90;94782.25;5126794;27;20066;-75
2022/04/02 03:07:49;;;;;;;41.08;17.83;;;;;;;0.46;93.82;94785.44;5127107;27;20058;-76
2022/04/02 03:10:17;;;;;;;36.28;16.38;;;;;;;0.41;93.70;94788.97;5126961;27;20043;-76
2022/04/02 03:12:43;;;;;;;38.50;16.70;;;;;;;0.39;94.07;94790.38;5126807;27;20592;-75
2022/04/02 03:15:10;;;;;;;41.25;16.98;;;;;;;0.36;93.58;94790.94;5109595;27;20063;-75
2022/04/02 03:17:37;;;;;;;39.00;15.75;;;;;;;0.34;93.69;94791.25;5107192;27;20406;-75
2022/04/02 03:20:06;;;;;;;34.72;16.15;;;;;;;0.35;93.64;94789.34;5106539;27;20048;-76
2022/04/02 03:22:35;;;;;;;31.20;15.52;;;;;;;0.33;93.69;94788.88;5106671;27;20054;-75
2022/04/02 03:25:01;;;;;;;37.22;15.77;;;;;;;0.31;93.69;94788.34;5106612;27;20087;-76
2022/04/02 03:27:28;;;;;;;34.97;16.08;;;;;;;0.36;93.50;94796.31;5106219;27;20050;-76
2022/04/02 03:29:55;;;;;;;39.28;16.48;;;;;;;0.39;93.32;94798.41;5106470;27;20071;-75
2022/04/02 03:32:21;;;;;;;34.65;15.43;;;;;;;0.41;93.27;94790.88;5106041;27;20056;-76
2022/04/02 03:34:48;;;;;;;37.35;16.77;;;;;;;0.41;93.33;94793.53;5106033;27;20082;-75
2022/04/02 03:37:16;;;;;;;37.53;16.17;;;;;;;0.40;93.20;94792.75;5106846;27;20039;-75
2022/04/02 03:39:42;;;;;;;39.13;17.10;;;;;;;0.41;93.14;94798.91;5105855;27;20055;-76
2022/04/02 03:42:10;;;;;;;35.40;15.98;;;;;;;0.42;93.09;94798.63;5106364;27;20055;-75
2022/04/02 03:44:36;;;;;;;39.08;17.23;;;;;;;0.34;92.77;94801.16;5103427;27;20062;-76
2022/04/02 03:47:09;;;;;;;32.90;15.35;;;;;;;0.34;92.91;94809.19;5106883;27;20051;-77
2022/04/02 03:49:36;;;;;;;37.03;15.93;;;;;;;0.34;93.10;94811.88;5106833;27;20054;-75
2022/04/02 03:52:03;;;;;;;43.05;17.20;;;;;;;0.36;93.37;94807.81;5105772;27;20116;-75
2022/04/02 03:54:31;;;;;;;35.13;15.75;;;;;;;0.34;93.55;94812.66;5106514;27;20054;-75
2022/04/02 03:56:58;;;;;;;34.80;15.57;;;;;;;0.36;93.38;94812.38;5106725;27;20408;-76
2022/04/02 03:59:24;;;;;;;38.10;16.90;;;;;;;0.29;92.92;94811.94;5106403;27;20449;-76
2022/04/02 04:01:51;;;;;;;38.78;16.17;;;;;;;0.14;92.75;94811.06;5105773;27;20055;-75
2022/04/02 04:04:18;;;;;;;46.42;17.55;;;;;;;0.17;93.12;94815.88;5106349;27;20052;-76
2022/04/02 04:06:45;;;;;;;51.53;17.95;;;;;;;0.24;92.97;94816.28;5106157;27;20062;-75
2022/04/02 04:09:11;;;;;;;44.08;17.33;;;;;;;0.20;92.77;94823.28;5105812;27;20044;-75
2022/04/02 04:11:40;;;;;;;43.72;16.15;;;;;;;0.16;92.57;94833.00;5106165;27;20058;-75
2022/04/02 04:14:06;;;;;;;50.05;16.63;;;;;;;0.17;92.47;94836.47;5118704;27;20055;-77
2022/04/02 04:16:33;;;;;;;40.55;16.38;;;;;;;0.21;92.52;94826.78;5126861;27;20047;-78
2022/04/02 04:18:59;;;;;;;44.47;16.23;;;;;;;0.23;92.20;94836.13;5126417;27;20058;-78
2022/04/02 04:21:26;;;;;;;43.88;16.83;;;;;;;0.19;92.15;94837.78;5126474;27;20074;-77
2022/04/02 04:23:52;;;;;;;52.28;17.13;;;;;;;0.23;92.17;94841.47;5126007;27;20077;-77
2022/04/02 04:26:19;;;;;;;47.20;16.48;;;;;;;0.20;92.27;94842.03;5126719;27;20047;-76
2022/04/02 04:28:46;;;;;;;38.70;15.88;;;;;;;0.17;92.21;94839.94;5126667;27;20070;-78
2022/04/02 04:31:17;;;;;;;55.42;17.80;;;;;;;0.18;92.33;94854.13;5126185;27;20043;-77
2022/04/02 04:33:44;;;;;;;43.95;16.67;;;;;;;0.16;92.37;94846.41;5126268;27;20497;-76
2022/04/02 04:36:11;;;;;;;44.97;16.83;;;;;;;0.15;92.40;94850.13;5125762;27;20653;-77
2022/04/02 04:38:38;;;;;;;46.72;15.52;;;;;;;0.17;92.49;94856.00;5126424;27;20058;-76
2022/04/02 04:41:04;;;;;;;44.25;15.93;;;;;;;0.08;92.18;94855.06;5125594;27;20047;-77
2022/04/02 04:43:32;;;;;;;43.38;16.98;;;;;;;0.14;92.34;94863.81;5119615;27;20078;-77
2022/04/02 04:46:00;;;;;;;46.60;16.48;;;;;;;0.17;92.34;94864.03;5109210;27;20525;-77
2022/04/02 04:48:26;;;;;;;50.67;17.30;;;;;;;0.16;92.19;94867.81;5109450;27;20051;-77
2022/04/02 04:50:53;;;;;;;42.55;16.63;;;;;;;0.20;92.41;94858.09;5108509;27;20052;-77
2022/04/02 04:53:20;;;;;;;45.05;17.10;;;;;;;0.19;92.04;94867.22;5109141;27;20547;-77
2022/04/02 04:55:46;;;;;;;46.22;17.92;;;;;;;0.17;92.03;94869.41;5109251;27;20055;-77
2022/04/02 04:58:13;;;;;;;51.47;18.13;;;;;;;0.17;92.07;94874.75;5108939;27;20052;-77
2022/04/02 05:00:41;;;;;;;51.15;18.02;;;;;;;0.14;92.10;94877.19;5109069;27;20052;-77
2022/04/02 05:03:10;;;;;;;56.78;19.23;;;;;;;0.09;91.94;94878.06;5108599;27;20067;-77
2022/04/02 05:05:38;;;;;;;43.38;17.00;;;;;;;0.12;91.88;94882.84;5109393;27;20039;-76
2022/04/02 05:08:05;;;;;;;53.92;18.08;;;;;;;0.12;91.71;94887.41;5107835;27;20325;-77
2022/04/02 05:10:32;;;;;;;49.17;17.30;;;;;;;0.14;91.64;94886.03;5108940;27;20564;-77
2022/04/02 05:12:59;;;;;;;45.75;17.60;;;;;;;0.17;91.33;94895.38;5111586;27;20049;-77
2022/04/02 05:15:26;;;;;;;42.67;17.15;;;;;;;0.13;91.19;94900.50;5129456;27;20050;-77
2022/04/02 05:17:52;;;;;;;39.95;16.63;;;;;;;0.14;91.17;94887.91;5129061;27;20043;-77
2022/04/02 05:20:20;;;;;;;39.63;16.65;;;;;;;0.12;91.43;94901.59;5128981;27;20043;-78
2022/04/02 05:22:47;;;;;;;45.45;17.55;;;;;;;0.13;91.47;94900.50;5129512;27;20047;-77
2022/04/02 05:25:14;;;;;;;41.47;17.42;;;;;;;0.16;91.70;94899.94;5128774;27;20043;-78
2022/04/02 05:27:41;;;;;;;37.75;16.48;;;;;;;0.16;91.67;94904.50;5129441;27;20051;-76
2022/04/02 05:30:09;;;;;;;52.90;18.23;;;;;;;0.19;91.47;94909.25;5128123;27;20050;-77
2022/04/02 05:32:36;;;;;;;43.92;18.08;;;;;;;0.18;91.40;94903.09;5129551;27;20053;-76
2022/04/02 05:35:03;;;;;;;44.30;17.55;;;;;;;0.17;91.21;94904.19;5128029;27;20391;-76
2022/04/02 05:37:31;;;;;;;44.65;17.13;;;;;;;0.15;91.20;94909.03;5129548;27;20051;-77
2022/04/02 05:39:57;;;;;;;41.00;18.90;;;;;;;0.11;91.26;94902.69;5128370;27;20054;-77
2022/04/02 05:42:26;;;;;;;49.28;18.77;;;;;;;0.09;91.36;94912.84;5128746;27;20054;-76
2022/04/02 05:44:53;;;;;;;41.38;16.95;;;;;;;0.12;91.39;94914.16;5106986;27;20413;-77
2022/04/02 05:47:20;;;;;;;44.88;17.83;;;;;;;0.17;91.34;94917.59;5107921;27;20048;-77
2022/04/02 05:49:51;;;;;;;47.50;17.42;;;;;;;0.19;91.34;94923.44;5108053;27;20051;-77
2022/04/02 05:52:17;;;;;;;49.30;18.35;;;;;;;0.19;91.11;94930.66;5107845;27;20136;-77
2022/04/02 05:54:45;;;;;;;39.33;16.55;;;;;;;0.25;91.25;94929.53;5107743;27;20058;-77
2022/04/02 05:57:12;;;;;;;41.63;17.75;;;;;;;0.22;90.99;94922.88;5107130;27;20051;-77
2022/04/02 05:59:39;;;;;;;45.47;17.08;;;;;;;0.22;90.76;94946.16;5108658;27;20062;-77
2022/04/02 06:02:06;;;;;;;38.55;15.90;;;;;;;0.24;90.97;94934.06;5107151;27;20052;-77
2022/04/02 06:04:35;;;;;;;45.05;18.05;;;;;;;0.25;90.77;94935.66;5108187;27;20451;-76
2022/04/02 06:07:01;;;;;;;39.90;16.88;;;;;;;0.20;91.00;94941.09;5108048;27;20138;-77
2022/04/02 06:09:27;;;;;;;49.40;18.58;;;;;;;0.26;90.82;94947.16;5107562;27;20051;-77
2022/04/02 06:11:55;;;;;;;41.78;17.88;;;;;;;0.30;90.68;94958.09;5107833;27;20047;-77
2022/04/02 06:14:22;;;;;;;38.47;17.13;;;;;;;0.28;90.28;94952.25;5122382;27;20058;-77
2022/04/02 06:16:48;;;;;;;40.00;16.95;;;;;;;0.32;90.10;94953.28;5128711;27;20058;-77
2022/04/02 06:19:17;;;;;;;46.85;17.77;;;;;;;0.27;89.51;94953.34;5127189;27;20051;-77
2022/04/02 06:21:44;;;;;;;44.85;16.88;;;;;;;0.30;90.05;94947.41;5110019;27;20482;-76
2022/04/02 06:24:10;;;;;;;44.65;16.63;;;;;;;0.33;90.27;94952.19;5106520;28;20050;-77
2022/04/02 06:26:37;;;;;;;43.63;17.02;;;;;;;0.30;90.41;94964.25;5108246;28;20051;-77
2022/04/02 06:29:04;;;;;;;51.58;17.48;;;;;;;0.26;90.26;94965.91;5106913;28;20051;-77
2022/04/02 06:31:31;;;;;;;39.75;17.48;;;;;;;0.33;90.45;94962.91;5107352;28;20063;-77
2022/04/02 06:33:57;;;;;;;45.50;18.27;;;;;;;0.39;90.59;94964.44;5107313;28;20043;-77
2022/04/02 06:36:24;;;;;;;57.55;21.10;;;;;;;0.41;90.54;94964.94;5106418;28;20044;-77
2022/04/02 06:38:51;;;;;;;45.80;17.88;;;;;;;0.35;90.77;94966.88;5106995;28;20129;-77
2022/04/02 06:41:17;;;;;;;48.92;19.60;;;;;;;0.39;90.83;94972.47;5106248;28;20395;-77
2022/04/02 06:43:44;;;;;;;42.90;17.33;;;;;;;0.48;90.86;94965.38;5107773;27;20704;-76
2022/04/02 06:46:12;;;;;;;56.90;19.60;;;;;;;0.51;91.17;94978.19;5106057;27;20051;-77
2022/04/02 06:48:38;;;;;;;52.38;20.45;;;;;;;0.55;91.00;94981.88;5107615;27;20054;-77
2022/04/02 06:51:07;;;;;;;52.40;19.42;;;;;;;0.61;91.00;94988.78;5107315;27;20071;-77
2022/04/02 06:53:33;;;;;;;90.05;20.08;;;;;;;0.62;90.80;94984.22;5107218;27;20048;-77
2022/04/02 06:56:00;;;;;;;80.07;24.60;;;;;;;0.59;90.34;94982.91;5106915;27;20043;-77
2022/04/02 06:58:29;;;;;;;52.22;19.38;;;;;;;0.52;90.42;94983.28;5106831;28;20036;-77
2022/04/02 07:00:56;;;;;;;65.70;18.58;;;;;;;0.60;90.36;94989.84;5106683;28;20048;-77
2022/04/02 07:03:24;;;;;;;60.13;17.27;;;;;;;0.62;90.24;94990.34;5106132;28;20039;-78
2022/04/02 07:05:51;;;;;;;62.28;18.40;;;;;;;0.61;90.15;94996.00;5107225;28;20047;-77
2022/04/02 07:08:18;;;;;;;93.97;25.27;;;;;;;0.63;89.90;94994.66;5105983;28;20056;-78
2022/04/02 07:10:44;;;;;;;93.72;19.52;;;;;;;0.58;89.17;94992.03;5107201;28;20124;-77
2022/04/02 07:13:11;;;;;;;106.03;24.90;;;;;;;0.49;88.42;95004.47;5106060;28;20047;-77
2022/04/02 07:15:39;;;;;;;91.40;19.80;;;;;;;0.39;88.57;95009.94;5107134;28;20055;-76
2022/04/02 07:18:07;;;;;;;65.10;13.82;;;;;;;0.39;88.79;95020.66;5105933;28;20050;-77
2022/04/02 07:20:37;;;;;;;45.28;16.33;;;;;;;0.44;89.30;95016.03;5106395;28;20054;-77
2022/04/02 07:23:04;;;;;;;45.08;14.27;;;;;;;0.48;89.59;95027.00;5106601;28;20062;-77
2022/04/02 07:25:31;;;;;;;88.70;27.75;;;;;;;0.50;89.78;95032.84;5106515;28;20046;-77
2022/04/02 07:27:58;;;;;;;71.38;21.52;;;;;;;0.61;90.21;95028.94;5107233;28;20054;-77
2022/04/02 07:30:25;;;;;;;70.82;17.55;;;;;;;0.63;89.80;95040.19;5105621;28;20130;-77
2022/04/02 07:32:52;;;;;;;72.57;16.05;;;;;;;0.62;89.53;95035.09;5106941;28;20044;-77
2022/04/02 07:35:19;;;;;;;38.92;15.20;;;;;;;0.63;89.90;95040.19;5105736;28;20059;-76
2022/04/02 07:37:59;;;;;;;65.03;16.33;;;;;;;0.63;89.50;95048.22;5107032;28;20062;-77
2022/04/02 07:40:29;;;;;;;76.25;17.60;;;;;;;0.73;89.51;95045.44;5105598;28;20051;-77
2022/04/02 07:43:05;;;;;;;138.52;29.90;;;;;;;0.77;89.48;95054.47;5106706;28;20290;-77
2022/04/02 07:45:36;;;;;;;53.78;14.38;;;;;;;0.81;89.16;95053.91;5106570;28;20054;-77
2022/04/02 07:48:07;;;;;;;68.40;14.68;;;;;;;0.88;88.66;95048.97;5105593;28;20052;-77
2022/04/02 07:50:34;;;;;;;47.92;14.65;;;;;;;0.86;88.59;95056.50;5106632;28;20047;-77
2022/04/02 07:53:08;;;;;;;47.15;13.88;;;;;;;0.90;88.82;95062.91;5106047;28;20069;-76
2022/04/02 07:55:37;;;;;;;57.00;15.18;;;;;;;0.94;88.85;95069.25;5106864;28;20044;-77
2022/04/02 07:58:04;;;;;;;49.78;14.48;;;;;;;0.96;88.94;95064.41;5105337;28;20056;-79
2022/04/02 08:00:32;;;;;;;54.83;15.07;;;;;;;1.01;88.62;95064.34;5106319;28;20051;-78
2022/04/02 08:03:00;;;;;;;57.67;14.73;;;;;;;1.04;89.31;95069.13;5106652;28;20052;-76
2022/04/02 08:05:27;;;;;;;48.55;16.52;;;;;;;1.13;89.28;95078.13;5105868;28;20031;-76
2022/04/02 08:07:55;;;;;;;38.58;14.38;;;;;;;1.24;88.98;95074.22;5106595;28;20631;-77
2022/04/02 08:10:25;;;;;;;46.65;15.77;;;;;;;1.32;88.76;95074.66;5105322;28;20047;-77
2022/04/02 08:12:54;;;;;;;54.55;14.82;;;;;;;1.42;88.73;95079.88;5106756;28;20051;-76
2022/04/02 08:15:22;;;;;;;45.78;16.30;;;;;;;1.49;88.35;95085.66;5105320;28;20055;-76
2022/04/02 08:17:52;;;;;;;47.00;14.35;;;;;;;1.49;87.94;95089.13;5107680;28;20490;-76
2022/04/02 08:20:18;;;;;;;38.28;14.27;;;;;;;1.51;87.53;95094.22;5109017;28;20152;-76
2022/04/02 08:22:47;;;;;;;51.15;16.33;;;;;;;1.58;87.54;95094.66;5110318;28;20048;-76
2022/04/02 08:25:15;;;;;;;54.72;15.27;;;;;;;1.57;87.34;95095.75;5109616;28;20050;-76
2022/04/02 08:27:54;;;;;;;56.55;15.93;;;;;;;1.58;87.67;95100.03;5109687;28;20052;-76
2022/04/02 08:30:31;;;;;;;49.00;15.60;;;;;;;1.66;88.10;95102.03;5109403;28;20116;-77
2022/04/02 08:33:19;;;;;;;40.30;14.40;;;;;;;1.58;87.86;95099.22;5110349;28;20056;-76
2022/04/02 08:35:53;;;;;;;53.92;14.07;;;;;;;1.49;87.46;95113.28;5110074;28;20056;-75
2022/04/02 08:38:29;;;;;;;43.58;14.15;;;;;;;1.44;87.87;95115.25;5109594;28;20522;-76
2022/04/02 08:41:44;;;;;;;51.03;13.93;;;;;;;1.42;88.02;95120.13;5109630;28;20051;-76
2022/04/02 08:44:39;;;;;;;41.55;14.05;;;;;;;1.46;88.03;95123.78;5109386;28;20039;-76
2022/04/02 08:47:12;;;;;;;39.47;13.70;;;;;;;1.53;88.01;95125.03;5109220;28;20063;-73
2022/04/02 08:49:42;;;;;;;49.47;15.60;;;;;;;1.57;87.87;95127.94;5109637;28;20047;-73
2022/04/02 08:52:23;;;;;;;37.78;14.18;;;;;;;1.59;87.61;95136.50;5109213;28;20051;-74
2022/04/02 08:55:12;;;;;;;49.83;15.50;;;;;;;1.55;87.04;95138.16;5108850;28;20058;-74
2022/04/02 08:58:10;;;;;;;43.38;13.93;;;;;;;1.43;86.63;95135.13;5109951;28;20048;-74
2022/04/02 09:00:43;;;;;;;43.72;14.30;;;;;;;1.36;86.60;95151.56;5108460;28;20058;-74
2022/04/02 09:03:28;;;;;;;40.42;14.68;;;;;;;1.29;86.53;95157.28;5108770;28;20051;-74
2022/04/02 09:06:10;;;;;;;37.83;14.57;;;;;;;1.30;86.63;95164.25;5109427;28;20058;-74
2022/04/02 09:09:04;;;;;;;49.63;16.17;;;;;;;1.12;87.66;95167.69;5108588;28;20086;-74
2022/04/02 09:11:53;;;;;;;69.68;16.35;;;;;;;1.18;88.34;95174.59;5108931;28;20039;-74
2022/04/02 09:14:38;;;;;;;44.97;15.52;;;;;;;1.20;88.11;95177.78;5108859;28;20126;-74
2022/04/02 09:17:28;;;;;;;72.80;15.25;;;;;;;1.27;88.02;95178.22;5108130;28;20043;-74
2022/04/02 09:20:13;;;;;;;54.88;15.50;;;;;;;1.24;87.19;95176.09;5109433;28;20051;-74
2022/04/02 09:23:05;;;;;;;68.00;17.17;;;;;;;1.16;87.46;95184.81;5108490;28;20047;-74
2022/04/02 09:26:12;;;;;;;64.57;15.52;;;;;;;1.32;87.32;95176.56;5108619;28;20079;-73
2022/04/02 09:28:46;;;;;;;52.90;14.30;;;;;;;1.35;87.12;95192.06;5090746;28;20043;-74
2022/04/02 09:31:47;;;;;;;52.80;13.75;;;;;;;1.15;85.70;95191.25;5107440;28;20050;-76
2022/04/02 09:34:52;;;;;;;60.50;15.98;;;;;;;1.19;86.19;95199.50;5108378;28;20044;-74
2022/04/02 09:37:44;;;;;;;54.47;15.73;;;;;;;1.22;86.09;95194.38;5109067;28;20517;-74
2022/04/02 09:40:12;;;;;;;45.30;14.20;;;;;;;1.20;85.68;95198.41;5107507;28;20050;-74
2022/04/02 09:42:41;;;;;;;126.75;21.08;;;;;;;1.18;86.09;95193.34;5108760;28;20049;-74
2022/04/02 09:45:10;;;;;;;62.63;18.98;;;;;;;1.18;86.17;95205.97;5108120;28;20082;-74
2022/04/02 09:48:08;;;;;;;74.70;16.17;;;;;;;1.17;86.20;95202.47;5108685;28;20048;-74
2022/04/02 09:50:36;;;;;;;66.80;18.35;;;;;;;1.24;85.62;95202.94;5109092;28;20062;-74
2022/04/02 09:53:14;;;;;;;53.05;14.20;;;;;;;1.34;85.93;95206.56;5107274;28;20043;-75
2022/04/02 09:55:45;;;;;;;99.20;21.88;;;;;;;1.38;85.46;95203.03;5109081;28;20043;-75
2022/04/02 09:58:30;;;;;;;88.75;20.17;;;;;;;1.43;85.09;95210.22;5107561;28;20050;-75
2022/04/02 10:01:03;;;;;;;77.28;17.27;;;;;;;1.45;84.60;95214.19;5108161;28;20532;-74
2022/04/02 10:03:39;;;;;;;60.60;15.43;;;;;;;1.57;84.87;95219.16;5108703;28;20047;-75
2022/04/02 10:06:19;;;;;;;116.25;22.25;;;;;;;1.65;84.77;95215.81;5107185;28;20537;-74
2022/04/02 10:09:09;;;;;;;48.38;14.85;;;;;;;1.74;84.42;95218.66;5108817;28;20055;-74
2022/04/02 10:11:40;;;;;;;74.05;16.80;;;;;;;1.80;83.81;95218.31;5103772;28;20054;-75
2022/04/02 10:14:08;;;;;;;50.50;14.65;;;;;;;1.91;83.69;95218.94;5107662;28;20052;-75
2022/04/02 10:16:35;;;;;;;74.68;15.13;;;;;;;1.93;83.44;95213.28;5108142;28;20047;-75
2022/04/02 10:19:07;;;;;;;84.90;16.73;;;;;;;1.86;82.19;95223.59;5107202;28;20051;-75
2022/04/02 10:21:36;;;;;;;97.60;24.50;;;;;;;1.94;82.09;95231.81;5108672;28;20559;-74
2022/04/02 10:24:12;;;;;;;116.97;36.72;;;;;;;2.08;82.68;95227.28;5107142;28;20047;-75
2022/04/02 10:26:40;;;;;;;162.23;39.35;;;;;;;2.13;82.57;95234.47;5108345;28;20047;-74
2022/04/02 10:29:12;;;;;;;43.38;14.77;;;;;;;2.09;82.39;95233.47;5106739;28;20044;-75
2022/04/02 10:31:45;;;;;;;108.90;25.92;;;;;;;2.10;82.21;95235.06;5107882;28;20047;-75
2022/04/02 10:34:17;;;;;;;78.70;15.85;;;;;;;2.19;82.30;95233.28;5107558;28;20079;-76
2022/04/02 10:36:49;;;;;;;133.00;22.20;;;;;;;2.21;81.60;95236.50;5107239;28;20047;-75
2022/04/02 10:39:22;;;;;;;63.30;14.52;;;;;;;2.26;81.64;95239.13;5108054;28;20432;-74
2022/04/02 10:41:55;;;;;;;46.55;16.20;;;;;;;2.12;80.51;95245.50;5106638;28;20054;-74
2022/04/02 10:44:25;;;;;;;;;;;;;;;2.03;81.54;95245.34;5123109;27;20050;-75
2022/04/02 10:46:58;;;;;;;70.00;15.13;;;;;;;1.99;81.51;95247.06;5127333;27;19930;-74
2022/04/02 10:49:33;;;;;;;86.28;16.75;;;;;;;2.02;82.17;95255.31;5127811;27;20043;-75
2022/04/02 10:52:03;;;;;;;82.25;18.65;;;;;;;2.04;82.37;95252.34;5128086;27;20074;-75
2022/04/02 10:54:31;;;;;;;82.28;15.88;;;;;;;2.09;82.46;95255.75;5127354;27;20058;-75
2022/04/02 10:56:58;;;;;;;39.17;14.65;;;;;;;2.12;82.14;95249.00;5128231;27;20058;-75
2022/04/02 10:59:32;;;;;;;131.40;29.13;;;;;;;2.21;82.17;95258.00;5126633;27;20066;-75
2022/04/02 11:02:01;;;;;;;84.07;21.92;;;;;;;2.28;82.02;95255.72;5128367;27;20047;-75
2022/04/02 11:04:31;;;;;;;147.82;41.50;;;;;;;2.25;81.50;95260.91;5126558;27;20050;-75
2022/04/02 11:06:58;;;;;;;80.70;18.50;;;;;;;2.32;82.04;95261.31;5127979;27;20047;-75
2022/04/02 11:09:44;;;;;;;53.40;14.30;;;;;;;2.43;82.02;95261.97;5127276;27;20043;-75
2022/04/02 11:12:15;;;;;;;121.80;24.58;;;;;;;2.45;81.85;95262.47;5112964;27;20062;-76
2022/04/02 11:14:43;;;;;;;65.95;11.45;;;;;;;2.25;80.51;95264.38;5108693;28;20056;-75
2022/04/02 11:17:10;;;;;;;114.63;23.13;;;;;;;2.25;81.00;95263.59;5105702;28;20082;-75
2022/04/02 11:19:56;;;;;;;71.40;17.10;;;;;;;2.33;81.77;95270.97;5107622;28;20043;-75
2022/04/02 11:22:29;;;;;;;41.05;13.85;;;;;;;2.46;81.86;95270.25;5105927;28;20043;-75
2022/04/02 11:25:05;;;;;;;41.43;13.80;;;;;;;2.61;81.65;95269.22;5107097;28;20051;-75
2022/04/02 11:27:37;;;;;;;53.47;12.40;;;;;;;2.81;82.60;95271.53;5106682;28;20055;-75
2022/04/02 11:30:07;;;;;;;57.33;11.98;;;;;;;2.81;82.07;95282.28;5106241;28;20043;-75
2022/04/02 11:32:41;;;;;;;67.57;11.80;;;;;;;2.64;79.90;95278.56;5107181;28;20055;-74
2022/04/02 11:35:10;;;;;;;44.88;11.70;;;;;;;2.60;80.61;95283.72;5105777;28;20056;-75
2022/04/02 11:37:51;;;;;;;51.47;14.13;;;;;;;2.54;80.79;95287.56;5107472;28;20059;-75
2022/04/02 11:40:20;;;;;;;49.00;12.57;;;;;;;2.54;81.64;95287.56;5105721;28;20047;-75
2022/04/02 11:42:48;;;;;;;52.47;13.90;;;;;;;2.46;81.11;95290.94;5106438;28;20062;-75